sensor_id;sensor_type;location;lat;lon;timestamp;temperature;humidity
8067;DHT22;4076;48.076;9.118;2022-12-18T00:01:37;-6.10;99.90
8067;DHT22;4076;48.076;9.118;2022-12-18T00:04:04;-6.00;99.90
8067;DHT22;4076;48.076;9.118;2022-12-18T00:06:31;-6.00;99.90
8067;DHT22;4076;48.076;9.118;2022-12-18T00:08:58;-6.00;99.90
8067;DHT22;4076;48.076;9.118;2022-12-18T00:11:27;-6.00;99.90
8067;DHT22;4076;48.076;9.118;2022-12-18T00:13:55;-6.00;99.90
8067;DHT22;4076;48.076;9.118;2022-12-18T00:16:22;-6.00;99.90
8067;DHT22;4076;48.076;9.118;2022-12-18T00:18:49;-6.00;99.90
8067;DHT22;4076;48.076;9.118;2022-12-18T00:21:15;-5.90;99.90
8067;DHT22;4076;48.076;9.118;2022-12-18T00:23:43;-5.90;99.90
8067;DHT22;4076;48.076;9.118;2022-12-18T00:26:18;-5.90;99.90
8067;DHT22;4076;48.076;9.118;2022-12-18T00:28:45;-5.90;99.90
8067;DHT22;4076;48.076;9.118;2022-12-18T00:31:17;-5.90;99.90
8067;DHT22;4076;48.076;9.118;2022-12-18T00:33:43;-5.90;99.90
8067;DHT22;4076;48.076;9.118;2022-12-18T00:36:12;-5.90;99.90
8067;DHT22;4076;48.076;9.118;2022-12-18T00:38:38;-5.90;99.90
8067;DHT22;4076;48.076;9.118;2022-12-18T00:41:04;-5.90;99.90
8067;DHT22;4076;48.076;9.118;2022-12-18T00:43:30;-5.90;99.90
8067;DHT22;4076;48.076;9.118;2022-12-18T00:45:55;-5.90;99.90
8067;DHT22;4076;48.076;9.118;2022-12-18T00:48:21;-5.90;99.90
8067;DHT22;4076;48.076;9.118;2022-12-18T00:50:48;-5.80;99.90
8067;DHT22;4076;48.076;9.118;2022-12-18T00:53:14;-5.80;99.90
8067;DHT22;4076;48.076;9.118;2022-12-18T00:55:40;-5.80;99.90
8067;DHT22;4076;48.076;9.118;2022-12-18T00:58:06;-5.80;99.90
8067;DHT22;4076;48.076;9.118;2022-12-18T01:00:31;-5.80;99.90
8067;DHT22;4076;48.076;9.118;2022-12-18T01:02:57;-5.80;99.90
8067;DHT22;4076;48.076;9.118;2022-12-18T01:05:23;-5.80;99.90
8067;DHT22;4076;48.076;9.118;2022-12-18T01:07:48;-5.80;99.90
8067;DHT22;4076;48.076;9.118;2022-12-18T01:10:14;-5.80;99.90
8067;DHT22;4076;48.076;9.118;2022-12-18T01:12:39;-5.80;99.90
8067;DHT22;4076;48.076;9.118;2022-12-18T01:15:13;-5.80;99.90
8067;DHT22;4076;48.076;9.118;2022-12-18T01:17:38;-5.80;99.90
8067;DHT22;4076;48.076;9.118;2022-12-18T01:20:04;-5.80;99.90
8067;DHT22;4076;48.076;9.118;2022-12-18T01:22:30;-5.80;99.90
8067;DHT22;4076;48.076;9.118;2022-12-18T01:24:56;-5.80;99.90
8067;DHT22;4076;48.076;9.118;2022-12-18T01:27:21;-5.80;99.90
8067;DHT22;4076;48.076;9.118;2022-12-18T01:29:47;-5.80;99.90
8067;DHT22;4076;48.076;9.118;2022-12-18T01:32:12;-5.80;99.90
8067;DHT22;4076;48.076;9.118;2022-12-18T01:34:38;-5.80;99.90
8067;DHT22;4076;48.076;9.118;2022-12-18T01:37:06;-5.90;99.90
8067;DHT22;4076;48.076;9.118;2022-12-18T01:39:33;-5.80;99.90
8067;DHT22;4076;48.076;9.118;2022-12-18T01:42:11;-5.80;99.90
8067;DHT22;4076;48.076;9.118;2022-12-18T01:50:17;-5.60;99.90
8067;DHT22;4076;48.076;9.118;2022-12-18T01:52:46;-5.60;99.90
8067;DHT22;4076;48.076;9.118;2022-12-18T01:55:15;-5.70;99.90
8067;DHT22;4076;48.076;9.118;2022-12-18T01:57:41;-5.60;99.90
8067;DHT22;4076;48.076;9.118;2022-12-18T02:00:11;-5.60;99.90
8067;DHT22;4076;48.076;9.118;2022-12-18T02:02:37;-5.60;99.90
8067;DHT22;4076;48.076;9.118;2022-12-18T02:05:04;-5.50;99.90
8067;DHT22;4076;48.076;9.118;2022-12-18T02:10:21;-5.50;99.90
8067;DHT22;4076;48.076;9.118;2022-12-18T02:13:02;-5.50;99.90
8067;DHT22;4076;48.076;9.118;2022-12-18T02:15:42;-5.50;99.90
8067;DHT22;4076;48.076;9.118;2022-12-18T02:18:32;-5.50;99.90
8067;DHT22;4076;48.076;9.118;2022-12-18T02:21:08;-5.40;99.90
8067;DHT22;4076;48.076;9.118;2022-12-18T02:24:04;-5.30;99.90
8067;DHT22;4076;48.076;9.118;2022-12-18T02:26:38;-5.30;99.90
8067;DHT22;4076;48.076;9.118;2022-12-18T02:29:12;-5.30;99.90
8067;DHT22;4076;48.076;9.118;2022-12-18T02:31:45;-5.40;99.90
8067;DHT22;4076;48.076;9.118;2022-12-18T02:34:13;-5.40;99.90
8067;DHT22;4076;48.076;9.118;2022-12-18T02:36:41;-5.40;99.90
8067;DHT22;4076;48.076;9.118;2022-12-18T02:39:10;-5.40;99.90
8067;DHT22;4076;48.076;9.118;2022-12-18T02:41:37;-5.40;99.90
8067;DHT22;4076;48.076;9.118;2022-12-18T02:44:09;-5.30;99.90
8067;DHT22;4076;48.076;9.118;2022-12-18T02:46:41;-5.30;99.90
8067;DHT22;4076;48.076;9.118;2022-12-18T02:54:50;-5.30;99.90
8067;DHT22;4076;48.076;9.118;2022-12-18T02:57:42;-5.30;99.90
8067;DHT22;4076;48.076;9.118;2022-12-18T03:00:15;-5.30;99.90
8067;DHT22;4076;48.076;9.118;2022-12-18T03:05:22;-5.30;99.90
8067;DHT22;4076;48.076;9.118;2022-12-18T03:07:55;-5.30;99.90
8067;DHT22;4076;48.076;9.118;2022-12-18T03:10:26;-5.20;99.90
8067;DHT22;4076;48.076;9.118;2022-12-18T03:13:02;-5.10;99.90
8067;DHT22;4076;48.076;9.118;2022-12-18T03:15:34;-5.10;99.90
8067;DHT22;4076;48.076;9.118;2022-12-18T03:18:06;-5.10;99.90
8067;DHT22;4076;48.076;9.118;2022-12-18T03:20:34;-5.10;99.90
8067;DHT22;4076;48.076;9.118;2022-12-18T03:23:06;-5.10;99.90
8067;DHT22;4076;48.076;9.118;2022-12-18T03:25:34;-5.10;99.90
8067;DHT22;4076;48.076;9.118;2022-12-18T03:28:05;-5.10;99.90
8067;DHT22;4076;48.076;9.118;2022-12-18T03:30:37;-5.10;99.90
8067;DHT22;4076;48.076;9.118;2022-12-18T03:33:17;-5.10;99.90
8067;DHT22;4076;48.076;9.118;2022-12-18T03:35:45;-5.10;99.90
8067;DHT22;4076;48.076;9.118;2022-12-18T03:38:11;-5.10;99.90
8067;DHT22;4076;48.076;9.118;2022-12-18T03:40:51;-5.10;99.90
8067;DHT22;4076;48.076;9.118;2022-12-18T03:46:20;-5.10;99.90
8067;DHT22;4076;48.076;9.118;2022-12-18T03:48:55;-5.10;99.90
8067;DHT22;4076;48.076;9.118;2022-12-18T03:51:29;-5.10;99.90
8067;DHT22;4076;48.076;9.118;2022-12-18T03:53:59;-5.10;99.90
8067;DHT22;4076;48.076;9.118;2022-12-18T03:56:28;-5.10;99.90
8067;DHT22;4076;48.076;9.118;2022-12-18T03:58:55;-5.10;99.90
8067;DHT22;4076;48.076;9.118;2022-12-18T04:01:29;-5.10;99.90
8067;DHT22;4076;48.076;9.118;2022-12-18T04:03:58;-5.10;99.90
8067;DHT22;4076;48.076;9.118;2022-12-18T04:06:26;-5.10;99.90
8067;DHT22;4076;48.076;9.118;2022-12-18T04:08:52;-5.10;99.90
8067;DHT22;4076;48.076;9.118;2022-12-18T04:11:17;-5.10;99.90
8067;DHT22;4076;48.076;9.118;2022-12-18T04:13:43;-5.10;99.90
8067;DHT22;4076;48.076;9.118;2022-12-18T04:16:09;-5.10;99.90
8067;DHT22;4076;48.076;9.118;2022-12-18T04:18:35;-5.10;99.90
8067;DHT22;4076;48.076;9.118;2022-12-18T04:21:01;-5.20;99.90
8067;DHT22;4076;48.076;9.118;2022-12-18T04:23:26;-5.10;99.90
8067;DHT22;4076;48.076;9.118;2022-12-18T04:25:52;-5.00;99.90
8067;DHT22;4076;48.076;9.118;2022-12-18T04:28:17;-5.10;99.90
8067;DHT22;4076;48.076;9.118;2022-12-18T04:30:43;-5.10;99.90
8067;DHT22;4076;48.076;9.118;2022-12-18T04:33:13;-5.10;99.90
8067;DHT22;4076;48.076;9.118;2022-12-18T04:35:43;-5.00;99.90
8067;DHT22;4076;48.076;9.118;2022-12-18T04:38:09;-5.00;99.90
8067;DHT22;4076;48.076;9.118;2022-12-18T04:40:36;-5.10;99.90
8067;DHT22;4076;48.076;9.118;2022-12-18T04:43:02;-5.10;99.90
8067;DHT22;4076;48.076;9.118;2022-12-18T04:45:28;-5.10;99.90
8067;DHT22;4076;48.076;9.118;2022-12-18T04:47:57;-5.10;99.90
8067;DHT22;4076;48.076;9.118;2022-12-18T04:50:23;-5.00;99.90
8067;DHT22;4076;48.076;9.118;2022-12-18T04:52:48;-5.00;99.90
8067;DHT22;4076;48.076;9.118;2022-12-18T04:55:14;-5.00;99.90
8067;DHT22;4076;48.076;9.118;2022-12-18T04:57:39;-5.00;99.90
8067;DHT22;4076;48.076;9.118;2022-12-18T05:00:06;-5.10;99.90
8067;DHT22;4076;48.076;9.118;2022-12-18T05:02:32;-5.10;99.90
8067;DHT22;4076;48.076;9.118;2022-12-18T05:04:57;-5.10;99.90
8067;DHT22;4076;48.076;9.118;2022-12-18T05:07:23;-5.10;99.90
8067;DHT22;4076;48.076;9.118;2022-12-18T05:09:48;-5.10;99.90
8067;DHT22;4076;48.076;9.118;2022-12-18T05:12:14;-5.00;99.90
8067;DHT22;4076;48.076;9.118;2022-12-18T05:14:40;-5.00;99.90
8067;DHT22;4076;48.076;9.118;2022-12-18T05:17:05;-5.10;99.90
8067;DHT22;4076;48.076;9.118;2022-12-18T05:19:31;-5.00;99.90
8067;DHT22;4076;48.076;9.118;2022-12-18T05:21:57;-5.10;99.90
8067;DHT22;4076;48.076;9.118;2022-12-18T05:24:23;-5.10;99.90
8067;DHT22;4076;48.076;9.118;2022-12-18T05:26:48;-5.10;99.90
8067;DHT22;4076;48.076;9.118;2022-12-18T05:29:14;-5.00;99.90
8067;DHT22;4076;48.076;9.118;2022-12-18T05:31:40;-5.00;99.90
8067;DHT22;4076;48.076;9.118;2022-12-18T05:34:06;-5.00;99.90
8067;DHT22;4076;48.076;9.118;2022-12-18T05:36:31;-5.00;99.90
8067;DHT22;4076;48.076;9.118;2022-12-18T05:38:57;-5.00;99.90
8067;DHT22;4076;48.076;9.118;2022-12-18T05:41:22;-5.00;99.90
8067;DHT22;4076;48.076;9.118;2022-12-18T05:43:48;-5.00;99.90
8067;DHT22;4076;48.076;9.118;2022-12-18T05:46:17;-5.10;99.90
8067;DHT22;4076;48.076;9.118;2022-12-18T05:48:45;-5.20;99.90
8067;DHT22;4076;48.076;9.118;2022-12-18T05:51:14;-5.10;99.90
8067;DHT22;4076;48.076;9.118;2022-12-18T05:53:41;-5.10;99.90
8067;DHT22;4076;48.076;9.118;2022-12-18T05:56:10;-5.00;99.90
8067;DHT22;4076;48.076;9.118;2022-12-18T05:58:36;-5.00;99.90
8067;DHT22;4076;48.076;9.118;2022-12-18T06:01:11;-4.90;99.90
8067;DHT22;4076;48.076;9.118;2022-12-18T06:03:36;-4.90;99.90
8067;DHT22;4076;48.076;9.118;2022-12-18T06:06:03;-4.90;99.90
8067;DHT22;4076;48.076;9.118;2022-12-18T06:08:28;-4.90;99.90
8067;DHT22;4076;48.076;9.118;2022-12-18T06:10:54;-4.80;99.90
8067;DHT22;4076;48.076;9.118;2022-12-18T06:13:20;-4.80;99.90
8067;DHT22;4076;48.076;9.118;2022-12-18T06:15:46;-4.80;99.90
8067;DHT22;4076;48.076;9.118;2022-12-18T06:18:11;-4.90;99.90
8067;DHT22;4076;48.076;9.118;2022-12-18T06:20:37;-4.90;99.90
8067;DHT22;4076;48.076;9.118;2022-12-18T06:23:05;-4.90;99.90
8067;DHT22;4076;48.076;9.118;2022-12-18T06:25:31;-5.00;99.90
8067;DHT22;4076;48.076;9.118;2022-12-18T06:27:56;-5.00;99.90
8067;DHT22;4076;48.076;9.118;2022-12-18T06:30:22;-5.10;99.90
8067;DHT22;4076;48.076;9.118;2022-12-18T06:32:48;-5.20;99.90
8067;DHT22;4076;48.076;9.118;2022-12-18T06:35:14;-5.20;99.90
8067;DHT22;4076;48.076;9.118;2022-12-18T06:37:39;-5.30;99.90
8067;DHT22;4076;48.076;9.118;2022-12-18T06:40:06;-5.30;99.90
8067;DHT22;4076;48.076;9.118;2022-12-18T06:42:32;-5.30;99.90
8067;DHT22;4076;48.076;9.118;2022-12-18T06:44:57;-5.30;99.90
8067;DHT22;4076;48.076;9.118;2022-12-18T06:47:23;-5.20;99.90
8067;DHT22;4076;48.076;9.118;2022-12-18T06:49:49;-5.10;99.90
8067;DHT22;4076;48.076;9.118;2022-12-18T06:52:14;-5.20;99.90
8067;DHT22;4076;48.076;9.118;2022-12-18T06:54:40;-5.20;99.90
8067;DHT22;4076;48.076;9.118;2022-12-18T06:57:05;-5.20;99.90
8067;DHT22;4076;48.076;9.118;2022-12-18T06:59:31;-5.20;99.90
8067;DHT22;4076;48.076;9.118;2022-12-18T07:01:56;-5.10;99.90
8067;DHT22;4076;48.076;9.118;2022-12-18T07:04:22;-5.10;99.90
8067;DHT22;4076;48.076;9.118;2022-12-18T07:06:47;-5.10;99.90
8067;DHT22;4076;48.076;9.118;2022-12-18T07:09:13;-5.10;99.90
8067;DHT22;4076;48.076;9.118;2022-12-18T07:11:38;-5.10;99.90
8067;DHT22;4076;48.076;9.118;2022-12-18T07:14:04;-5.10;99.90
8067;DHT22;4076;48.076;9.118;2022-12-18T07:16:29;-5.10;99.90
8067;DHT22;4076;48.076;9.118;2022-12-18T07:18:55;-5.00;99.90
8067;DHT22;4076;48.076;9.118;2022-12-18T07:21:23;-5.00;99.90
8067;DHT22;4076;48.076;9.118;2022-12-18T07:23:49;-4.90;99.90
8067;DHT22;4076;48.076;9.118;2022-12-18T07:26:16;-4.90;99.90
8067;DHT22;4076;48.076;9.118;2022-12-18T07:28:42;-4.80;99.90
8067;DHT22;4076;48.076;9.118;2022-12-18T07:31:11;-4.80;99.90
8067;DHT22;4076;48.076;9.118;2022-12-18T07:33:37;-4.70;99.90
8067;DHT22;4076;48.076;9.118;2022-12-18T07:36:04;-4.60;99.90
8067;DHT22;4076;48.076;9.118;2022-12-18T07:38:31;-4.60;99.90
8067;DHT22;4076;48.076;9.118;2022-12-18T07:41:08;-4.60;99.90
8067;DHT22;4076;48.076;9.118;2022-12-18T07:43:34;-4.60;99.90
8067;DHT22;4076;48.076;9.118;2022-12-18T07:46:00;-4.60;99.90
8067;DHT22;4076;48.076;9.118;2022-12-18T07:48:26;-4.70;99.90
8067;DHT22;4076;48.076;9.118;2022-12-18T07:50:52;-4.90;99.90
8067;DHT22;4076;48.076;9.118;2022-12-18T07:53:18;-5.00;99.90
8067;DHT22;4076;48.076;9.118;2022-12-18T07:55:43;-5.00;99.90
8067;DHT22;4076;48.076;9.118;2022-12-18T07:58:09;-5.00;99.90
8067;DHT22;4076;48.076;9.118;2022-12-18T08:00:34;-4.90;99.90
8067;DHT22;4076;48.076;9.118;2022-12-18T08:03:00;-4.90;99.90
8067;DHT22;4076;48.076;9.118;2022-12-18T08:05:27;-4.80;99.90
8067;DHT22;4076;48.076;9.118;2022-12-18T08:07:53;-4.70;99.90
8067;DHT22;4076;48.076;9.118;2022-12-18T08:10:19;-4.60;99.90
8067;DHT22;4076;48.076;9.118;2022-12-18T08:12:44;-4.50;99.90
8067;DHT22;4076;48.076;9.118;2022-12-18T08:15:10;-4.40;99.90
8067;DHT22;4076;48.076;9.118;2022-12-18T08:17:36;-4.40;99.90
8067;DHT22;4076;48.076;9.118;2022-12-18T08:20:02;-4.40;99.90
8067;DHT22;4076;48.076;9.118;2022-12-18T08:22:28;-4.40;99.90
8067;DHT22;4076;48.076;9.118;2022-12-18T08:24:54;-4.30;99.90
8067;DHT22;4076;48.076;9.118;2022-12-18T08:27:20;-4.40;99.90
8067;DHT22;4076;48.076;9.118;2022-12-18T08:29:45;-4.40;99.90
8067;DHT22;4076;48.076;9.118;2022-12-18T08:32:11;-4.50;99.90
8067;DHT22;4076;48.076;9.118;2022-12-18T08:34:37;-4.60;99.90
8067;DHT22;4076;48.076;9.118;2022-12-18T08:37:03;-4.50;99.90
8067;DHT22;4076;48.076;9.118;2022-12-18T08:39:28;-4.50;99.90
8067;DHT22;4076;48.076;9.118;2022-12-18T08:41:54;-4.50;99.90
8067;DHT22;4076;48.076;9.118;2022-12-18T08:44:40;-4.40;99.90
8067;DHT22;4076;48.076;9.118;2022-12-18T08:47:07;-4.30;99.90
8067;DHT22;4076;48.076;9.118;2022-12-18T08:49:33;-4.30;99.90
8067;DHT22;4076;48.076;9.118;2022-12-18T08:51:59;-4.20;99.90
8067;DHT22;4076;48.076;9.118;2022-12-18T08:54:26;-4.20;99.90
8067;DHT22;4076;48.076;9.118;2022-12-18T08:56:52;-4.10;99.90
8067;DHT22;4076;48.076;9.118;2022-12-18T08:59:18;-4.10;99.90
8067;DHT22;4076;48.076;9.118;2022-12-18T09:01:44;-4.00;99.90
8067;DHT22;4076;48.076;9.118;2022-12-18T09:04:10;-3.90;99.90
8067;DHT22;4076;48.076;9.118;2022-12-18T09:06:36;-4.00;99.90
8067;DHT22;4076;48.076;9.118;2022-12-18T09:09:02;-4.20;99.90
8067;DHT22;4076;48.076;9.118;2022-12-18T09:11:28;-4.40;99.90
8067;DHT22;4076;48.076;9.118;2022-12-18T09:13:55;-4.30;99.90
8067;DHT22;4076;48.076;9.118;2022-12-18T09:16:22;-4.30;99.90
8067;DHT22;4076;48.076;9.118;2022-12-18T09:18:48;-4.20;99.90
8067;DHT22;4076;48.076;9.118;2022-12-18T09:21:16;-4.10;99.90
8067;DHT22;4076;48.076;9.118;2022-12-18T09:23:42;-4.00;99.90
8067;DHT22;4076;48.076;9.118;2022-12-18T09:26:07;-3.80;99.90
8067;DHT22;4076;48.076;9.118;2022-12-18T09:28:33;-3.70;99.90
8067;DHT22;4076;48.076;9.118;2022-12-18T09:30:59;-3.70;99.90
8067;DHT22;4076;48.076;9.118;2022-12-18T09:33:28;-3.70;99.90
8067;DHT22;4076;48.076;9.118;2022-12-18T09:35:53;-3.70;99.90
8067;DHT22;4076;48.076;9.118;2022-12-18T09:38:19;-3.60;99.90
8067;DHT22;4076;48.076;9.118;2022-12-18T09:40:52;-3.60;99.90
8067;DHT22;4076;48.076;9.118;2022-12-18T09:43:30;-3.60;99.90
8067;DHT22;4076;48.076;9.118;2022-12-18T09:46:02;-3.50;99.90
8067;DHT22;4076;48.076;9.118;2022-12-18T09:48:31;-3.30;99.90
8067;DHT22;4076;48.076;9.118;2022-12-18T09:51:09;-3.20;99.90
8067;DHT22;4076;48.076;9.118;2022-12-18T09:53:38;-3.10;99.90
8067;DHT22;4076;48.076;9.118;2022-12-18T09:56:06;-3.10;99.90
8067;DHT22;4076;48.076;9.118;2022-12-18T09:58:43;-3.00;99.90
8067;DHT22;4076;48.076;9.118;2022-12-18T10:01:21;-2.90;99.90
8067;DHT22;4076;48.076;9.118;2022-12-18T10:03:48;-2.90;99.90
8067;DHT22;4076;48.076;9.118;2022-12-18T10:06:37;-2.80;99.90
8067;DHT22;4076;48.076;9.118;2022-12-18T10:12:17;-2.80;99.90
8067;DHT22;4076;48.076;9.118;2022-12-18T10:20:05;-2.70;99.90
8067;DHT22;4076;48.076;9.118;2022-12-18T10:27:53;-2.50;99.90
8067;DHT22;4076;48.076;9.118;2022-12-18T10:30:22;-2.40;99.90
8067;DHT22;4076;48.076;9.118;2022-12-18T10:32:48;-2.40;99.90
8067;DHT22;4076;48.076;9.118;2022-12-18T10:35:23;-2.40;99.90
8067;DHT22;4076;48.076;9.118;2022-12-18T10:40:30;-2.30;99.90
8067;DHT22;4076;48.076;9.118;2022-12-18T10:43:09;-2.20;99.90
8067;DHT22;4076;48.076;9.118;2022-12-18T10:45:36;-2.10;99.90
8067;DHT22;4076;48.076;9.118;2022-12-18T10:48:01;-2.20;99.90
8067;DHT22;4076;48.076;9.118;2022-12-18T10:50:31;-2.20;99.90
8067;DHT22;4076;48.076;9.118;2022-12-18T10:53:02;-2.20;99.90
8067;DHT22;4076;48.076;9.118;2022-12-18T10:55:34;-2.20;99.90
8067;DHT22;4076;48.076;9.118;2022-12-18T10:58:20;-2.20;99.90
8067;DHT22;4076;48.076;9.118;2022-12-18T11:01:13;-2.30;99.90
8067;DHT22;4076;48.076;9.118;2022-12-18T11:03:44;-2.30;99.90
8067;DHT22;4076;48.076;9.118;2022-12-18T11:06:15;-2.30;99.90
8067;DHT22;4076;48.076;9.118;2022-12-18T11:08:43;-2.20;99.90
8067;DHT22;4076;48.076;9.118;2022-12-18T11:11:23;-2.20;99.90
8067;DHT22;4076;48.076;9.118;2022-12-18T11:16:21;-2.10;99.90
8067;DHT22;4076;48.076;9.118;2022-12-18T11:18:47;-2.00;99.90
8067;DHT22;4076;48.076;9.118;2022-12-18T11:21:13;-2.00;99.90
8067;DHT22;4076;48.076;9.118;2022-12-18T11:23:49;-1.90;99.90
8067;DHT22;4076;48.076;9.118;2022-12-18T11:26:16;-2.00;99.90
8067;DHT22;4076;48.076;9.118;2022-12-18T11:28:46;-2.10;99.90
8067;DHT22;4076;48.076;9.118;2022-12-18T11:31:28;-2.10;99.90
8067;DHT22;4076;48.076;9.118;2022-12-18T11:34:12;-2.00;99.90
8067;DHT22;4076;48.076;9.118;2022-12-18T11:36:45;-2.00;99.90
8067;DHT22;4076;48.076;9.118;2022-12-18T11:42:27;-2.10;99.90
8067;DHT22;4076;48.076;9.118;2022-12-18T11:49:51;-1.80;99.90
8067;DHT22;4076;48.076;9.118;2022-12-18T11:52:23;-1.70;99.90
8067;DHT22;4076;48.076;9.118;2022-12-18T11:54:55;-1.60;99.90
8067;DHT22;4076;48.076;9.118;2022-12-18T11:57:39;-1.50;99.90
8067;DHT22;4076;48.076;9.118;2022-12-18T12:00:28;-1.50;99.90
8067;DHT22;4076;48.076;9.118;2022-12-18T12:03:23;-1.40;99.90
8067;DHT22;4076;48.076;9.118;2022-12-18T12:06:25;-1.40;99.90
8067;DHT22;4076;48.076;9.118;2022-12-18T12:10:01;-1.20;99.90
8067;DHT22;4076;48.076;9.118;2022-12-18T12:12:15;-1.30;99.90
8067;DHT22;4076;48.076;9.118;2022-12-18T12:15:10;-1.50;99.90
8067;DHT22;4076;48.076;9.118;2022-12-18T12:17:50;-1.50;99.90
8067;DHT22;4076;48.076;9.118;2022-12-18T12:26:07;-1.40;99.90
8067;DHT22;4076;48.076;9.118;2022-12-18T12:32:10;-1.30;99.90
8067;DHT22;4076;48.076;9.118;2022-12-18T12:34:22;-1.20;99.90
8067;DHT22;4076;48.076;9.118;2022-12-18T12:39:20;-1.10;99.90
8067;DHT22;4076;48.076;9.118;2022-12-18T12:41:48;-1.10;99.90
8067;DHT22;4076;48.076;9.118;2022-12-18T12:44:37;-1.10;99.90
8067;DHT22;4076;48.076;9.118;2022-12-18T12:47:13;-1.10;99.90
8067;DHT22;4076;48.076;9.118;2022-12-18T12:49:40;-1.10;99.90
8067;DHT22;4076;48.076;9.118;2022-12-18T12:52:33;-1.10;99.90
8067;DHT22;4076;48.076;9.118;2022-12-18T12:55:02;-1.00;99.90
8067;DHT22;4076;48.076;9.118;2022-12-18T12:57:41;-1.10;99.90
8067;DHT22;4076;48.076;9.118;2022-12-18T13:00:15;-1.00;99.90
8067;DHT22;4076;48.076;9.118;2022-12-18T13:05:26;-1.00;99.90
8067;DHT22;4076;48.076;9.118;2022-12-18T13:08:04;-1.00;99.90
8067;DHT22;4076;48.076;9.118;2022-12-18T13:10:40;-1.00;99.90
8067;DHT22;4076;48.076;9.118;2022-12-18T13:13:14;-1.00;99.90
8067;DHT22;4076;48.076;9.118;2022-12-18T13:16:07;-1.10;99.90
8067;DHT22;4076;48.076;9.118;2022-12-18T13:18:34;-1.10;99.90
8067;DHT22;4076;48.076;9.118;2022-12-18T13:25:58;-1.10;99.90
8067;DHT22;4076;48.076;9.118;2022-12-18T13:30:59;-1.20;99.90
8067;DHT22;4076;48.076;9.118;2022-12-18T13:36:04;-1.60;99.90
8067;DHT22;4076;48.076;9.118;2022-12-18T13:38:36;-1.70;99.90
8067;DHT22;4076;48.076;9.118;2022-12-18T13:43:56;-1.90;99.90
8067;DHT22;4076;48.076;9.118;2022-12-18T13:46:44;-1.90;99.90
8067;DHT22;4076;48.076;9.118;2022-12-18T13:51:50;-2.00;99.90
8067;DHT22;4076;48.076;9.118;2022-12-18T13:54:22;-2.00;99.90
8067;DHT22;4076;48.076;9.118;2022-12-18T13:56:50;-1.90;99.90
8067;DHT22;4076;48.076;9.118;2022-12-18T14:01:48;-1.80;99.90
8067;DHT22;4076;48.076;9.118;2022-12-18T14:04:19;-1.80;99.90
8067;DHT22;4076;48.076;9.118;2022-12-18T14:06:50;-1.70;99.90
8067;DHT22;4076;48.076;9.118;2022-12-18T14:09:21;-1.70;99.90
8067;DHT22;4076;48.076;9.118;2022-12-18T14:11:49;-1.70;99.90
8067;DHT22;4076;48.076;9.118;2022-12-18T14:14:17;-1.80;99.90
8067;DHT22;4076;48.076;9.118;2022-12-18T14:16:42;-2.00;99.90
8067;DHT22;4076;48.076;9.118;2022-12-18T14:19:15;-2.10;99.90
8067;DHT22;4076;48.076;9.118;2022-12-18T14:21:47;-2.10;99.90
8067;DHT22;4076;48.076;9.118;2022-12-18T14:24:14;-2.20;99.90
8067;DHT22;4076;48.076;9.118;2022-12-18T14:26:40;-2.20;99.90
8067;DHT22;4076;48.076;9.118;2022-12-18T14:29:27;-2.10;99.90
8067;DHT22;4076;48.076;9.118;2022-12-18T14:32:15;-2.10;99.90
8067;DHT22;4076;48.076;9.118;2022-12-18T14:34:51;-2.10;99.90
8067;DHT22;4076;48.076;9.118;2022-12-18T14:37:26;-2.20;99.90
8067;DHT22;4076;48.076;9.118;2022-12-18T14:40:04;-2.20;99.90
8067;DHT22;4076;48.076;9.118;2022-12-18T14:42:30;-2.20;99.90
8067;DHT22;4076;48.076;9.118;2022-12-18T14:48:00;-2.20;99.90
8067;DHT22;4076;48.076;9.118;2022-12-18T14:50:26;-2.20;99.90
8067;DHT22;4076;48.076;9.118;2022-12-18T14:52:52;-2.20;99.90
8067;DHT22;4076;48.076;9.118;2022-12-18T14:55:19;-2.20;99.90
8067;DHT22;4076;48.076;9.118;2022-12-18T14:57:52;-2.30;99.90
8067;DHT22;4076;48.076;9.118;2022-12-18T15:00:21;-2.30;99.90
8067;DHT22;4076;48.076;9.118;2022-12-18T15:02:54;-2.40;99.90
8067;DHT22;4076;48.076;9.118;2022-12-18T15:05:26;-2.40;99.90
8067;DHT22;4076;48.076;9.118;2022-12-18T15:07:57;-2.50;99.90
8067;DHT22;4076;48.076;9.118;2022-12-18T15:13:07;-2.50;99.90
8067;DHT22;4076;48.076;9.118;2022-12-18T15:18:23;-2.50;99.90
8067;DHT22;4076;48.076;9.118;2022-12-18T15:20:55;-2.50;99.90
8067;DHT22;4076;48.076;9.118;2022-12-18T15:23:35;-2.50;99.90
8067;DHT22;4076;48.076;9.118;2022-12-18T15:26:06;-2.50;99.90
8067;DHT22;4076;48.076;9.118;2022-12-18T15:33:41;-2.60;99.90
8067;DHT22;4076;48.076;9.118;2022-12-18T15:36:12;-2.60;99.90
8067;DHT22;4076;48.076;9.118;2022-12-18T15:38:38;-2.70;99.90
8067;DHT22;4076;48.076;9.118;2022-12-18T15:41:04;-2.70;99.90
8067;DHT22;4076;48.076;9.118;2022-12-18T15:43:30;-2.70;99.90
8067;DHT22;4076;48.076;9.118;2022-12-18T15:46:02;-2.70;99.90
8067;DHT22;4076;48.076;9.118;2022-12-18T15:48:29;-2.70;99.90
8067;DHT22;4076;48.076;9.118;2022-12-18T15:50:56;-2.80;99.90
8067;DHT22;4076;48.076;9.118;2022-12-18T15:53:23;-2.80;99.90
8067;DHT22;4076;48.076;9.118;2022-12-18T15:55:49;-2.80;99.90
8067;DHT22;4076;48.076;9.118;2022-12-18T15:58:33;-2.70;99.90
8067;DHT22;4076;48.076;9.118;2022-12-18T16:00:59;-2.70;99.90
8067;DHT22;4076;48.076;9.118;2022-12-18T16:03:25;-2.70;99.90
8067;DHT22;4076;48.076;9.118;2022-12-18T16:05:51;-2.70;99.90
8067;DHT22;4076;48.076;9.118;2022-12-18T16:08:16;-2.80;99.90
8067;DHT22;4076;48.076;9.118;2022-12-18T16:10:42;-2.80;99.90
8067;DHT22;4076;48.076;9.118;2022-12-18T16:13:12;-2.80;99.90
8067;DHT22;4076;48.076;9.118;2022-12-18T16:15:40;-2.80;99.90
8067;DHT22;4076;48.076;9.118;2022-12-18T16:18:05;-2.90;99.90
8067;DHT22;4076;48.076;9.118;2022-12-18T16:20:31;-2.90;99.90
8067;DHT22;4076;48.076;9.118;2022-12-18T16:22:56;-2.90;99.90
8067;DHT22;4076;48.076;9.118;2022-12-18T16:25:27;-2.90;99.90
8067;DHT22;4076;48.076;9.118;2022-12-18T16:27:54;-2.90;99.90
8067;DHT22;4076;48.076;9.118;2022-12-18T16:30:26;-2.90;99.90
8067;DHT22;4076;48.076;9.118;2022-12-18T16:32:53;-2.90;99.90
8067;DHT22;4076;48.076;9.118;2022-12-18T16:35:19;-2.90;99.90
8067;DHT22;4076;48.076;9.118;2022-12-18T16:37:45;-2.90;99.90
8067;DHT22;4076;48.076;9.118;2022-12-18T16:40:13;-2.90;99.90
8067;DHT22;4076;48.076;9.118;2022-12-18T16:42:41;-2.90;99.90
8067;DHT22;4076;48.076;9.118;2022-12-18T16:45:09;-2.90;99.90
8067;DHT22;4076;48.076;9.118;2022-12-18T16:47:34;-2.80;99.90
8067;DHT22;4076;48.076;9.118;2022-12-18T16:50:00;-2.90;99.90
8067;DHT22;4076;48.076;9.118;2022-12-18T16:52:26;-2.90;99.90
8067;DHT22;4076;48.076;9.118;2022-12-18T16:54:52;-2.90;99.90
8067;DHT22;4076;48.076;9.118;2022-12-18T16:57:19;-2.90;99.90
8067;DHT22;4076;48.076;9.118;2022-12-18T16:59:45;-2.90;99.90
8067;DHT22;4076;48.076;9.118;2022-12-18T17:02:16;-2.80;99.90
8067;DHT22;4076;48.076;9.118;2022-12-18T17:04:42;-2.80;99.90
8067;DHT22;4076;48.076;9.118;2022-12-18T17:07:08;-2.70;99.90
8067;DHT22;4076;48.076;9.118;2022-12-18T17:09:34;-2.70;99.90
8067;DHT22;4076;48.076;9.118;2022-12-18T17:11:59;-2.60;99.90
8067;DHT22;4076;48.076;9.118;2022-12-18T17:14:25;-2.70;99.90
8067;DHT22;4076;48.076;9.118;2022-12-18T17:16:52;-2.80;99.90
8067;DHT22;4076;48.076;9.118;2022-12-18T17:19:18;-2.80;99.90
8067;DHT22;4076;48.076;9.118;2022-12-18T17:21:47;-2.90;99.90
8067;DHT22;4076;48.076;9.118;2022-12-18T17:24:12;-2.90;99.90
8067;DHT22;4076;48.076;9.118;2022-12-18T17:26:38;-2.90;99.90
8067;DHT22;4076;48.076;9.118;2022-12-18T17:29:04;-2.90;99.90
8067;DHT22;4076;48.076;9.118;2022-12-18T17:31:29;-2.80;99.90
8067;DHT22;4076;48.076;9.118;2022-12-18T17:33:56;-2.90;99.90
8067;DHT22;4076;48.076;9.118;2022-12-18T17:36:23;-2.90;99.90
8067;DHT22;4076;48.076;9.118;2022-12-18T17:38:50;-2.90;99.90
8067;DHT22;4076;48.076;9.118;2022-12-18T17:41:17;-2.90;99.90
8067;DHT22;4076;48.076;9.118;2022-12-18T17:43:42;-3.00;99.90
8067;DHT22;4076;48.076;9.118;2022-12-18T17:46:13;-3.00;99.90
8067;DHT22;4076;48.076;9.118;2022-12-18T17:48:39;-3.00;99.90